Time;durP1;ratioP1;P1;durP2;ratioP2;P2;SDS_P1;SDS_P2;PMS_P1;PMS_P2;Temp;Humidity;BMP_temperature;BMP_pressure;BME280_temperature;BME280_humidity;BME280_pressure;Samples;Min_cycle;Max_cycle;Signal;HPM_P1;HPM_P2
2022/08/12 00:43:38;;;;;;;2.08;1.98;;;;;;;;;;5039755;28;20196;-68
2022/08/12 00:48:50;;;;;;;2.25;2.03;;;;;;;;;;5040001;28;20257;-68
2022/08/12 00:51:17;;;;;;;2.20;2.10;;;;;;;;;;5040005;28;20220;-68
2022/08/12 00:53:43;;;;;;;2.15;2.05;;;;;;;;;;5039748;28;20206;-68
2022/08/12 00:56:10;;;;;;;2.45;2.28;;;;;;;;;;5039355;28;20219;-68
2022/08/12 00:58:37;;;;;;;2.40;2.20;;;;;;;;;;5039575;28;20228;-68
2022/08/12 01:01:06;;;;;;;2.13;1.80;;;;;;;;;;5039480;28;20532;-68
2022/08/12 01:11:27;;;;;;;2.45;2.30;;;;;;;;;;5039729;28;20250;-68
2022/08/12 01:11:51;;;;;;;2.17;2.08;;;;;;;;;;5039204;28;20235;-69
2022/08/12 01:14:17;;;;;;;5.28;2.28;;;;;;;;;;5039667;28;20197;-69
2022/08/12 01:16:44;;;;;;;2.80;2.60;;;;;;;;;;5039998;28;20211;-69
2022/08/12 01:19:11;;;;;;;6.63;2.25;;;;;;;;;;5046032;28;20197;-69
2022/08/12 01:21:56;;;;;;;2.40;2.30;;;;;;;;;;5045924;28;20389;-69
2022/08/12 01:24:42;;;;;;;2.30;2.20;;;;;;;;;;5046276;28;20205;-69
2022/08/12 01:27:09;;;;;;;2.40;2.30;;;;;;;;;;5045730;28;20254;-69
2022/08/12 01:29:41;;;;;;;2.20;2.05;;;;;;;;;;5045880;28;20197;-69
2022/08/12 01:32:09;;;;;;;5.95;2.58;;;;;;;;;;5045665;28;20235;-69
2022/08/12 01:34:37;;;;;;;2.17;2.05;;;;;;;;;;5046064;28;20441;-69
2022/08/12 01:37:03;;;;;;;2.25;2.05;;;;;;;;;;5045480;28;20232;-69
2022/08/12 01:39:31;;;;;;;3.97;2.08;;;;;;;;;;5045822;28;20434;-69
2022/08/12 01:42:03;;;;;;;2.88;1.80;;;;;;;;;;5045851;28;20439;-69
2022/08/12 01:44:30;;;;;;;2.08;1.98;;;;;;;;;;5045715;28;20255;-69
2022/08/12 01:46:58;;;;;;;3.67;1.95;;;;;;;;;;5045216;28;20210;-69
2022/08/12 01:49:43;;;;;;;2.00;1.90;;;;;;;;;;5045811;28;20423;-69
2022/08/12 01:52:12;;;;;;;2.13;2.03;;;;;;;;;;5045608;28;20235;-69
2022/08/12 01:54:39;;;;;;;2.60;1.65;;;;;;;;;;5044995;28;20571;-69
2022/08/12 01:57:10;;;;;;;2.00;1.90;;;;;;;;;;5045251;28;20505;-69
2022/08/12 01:59:48;;;;;;;2.42;2.33;;;;;;;;;;5045472;28;20396;-69
2022/08/12 02:02:17;;;;;;;2.40;2.20;;;;;;;;;;5045442;28;20273;-69
2022/08/12 02:13:20;;;;;;;3.03;2.20;;;;;;;;;;5045125;28;20283;-68
2022/08/12 02:15:55;;;;;;;2.20;2.00;;;;;;;;;;5045166;28;20205;-68
2022/08/12 02:18:24;;;;;;;2.35;2.08;;;;;;;;;;5045125;28;20216;-68
2022/08/12 02:20:56;;;;;;;1.92;1.83;;;;;;;;;;5045141;28;20559;-68
2022/08/12 02:23:25;;;;;;;2.33;2.13;;;;;;;;;;5045068;28;20252;-68
2022/08/12 02:25:54;;;;;;;2.30;2.10;;;;;;;;;;5045147;28;20240;-68
2022/08/12 02:28:22;;;;;;;2.35;2.15;;;;;;;;;;5043804;28;20194;-68
2022/08/12 02:30:49;;;;;;;4.30;2.15;;;;;;;;;;5041492;28;20198;-68
2022/08/12 02:33:16;;;;;;;3.28;1.92;;;;;;;;;;5041752;28;20194;-69
2022/08/12 02:35:44;;;;;;;1.90;1.80;;;;;;;;;;5041746;28;20389;-69
2022/08/12 02:38:11;;;;;;;2.70;2.25;;;;;;;;;;5041350;28;20218;-69
2022/08/12 02:40:38;;;;;;;2.17;1.92;;;;;;;;;;5041941;28;20236;-69
2022/08/12 02:43:11;;;;;;;3.92;2.30;;;;;;;;;;5041822;28;20198;-69
2022/08/12 02:45:44;;;;;;;2.10;2.00;;;;;;;;;;5041628;28;20205;-69
2022/08/12 02:48:14;;;;;;;2.10;2.00;;;;;;;;;;5041494;28;20250;-68
2022/08/12 02:50:44;;;;;;;2.20;2.10;;;;;;;;;;5041371;28;20238;-68
2022/08/12 02:53:11;;;;;;;2.05;1.95;;;;;;;;;;5041581;28;20239;-68
2022/08/12 02:55:37;;;;;;;2.10;1.90;;;;;;;;;;5041777;28;20259;-68
2022/08/12 02:58:08;;;;;;;2.25;2.15;;;;;;;;;;5041250;28;20210;-68
2022/08/12 03:00:34;;;;;;;2.33;2.22;;;;;;;;;;5041819;28;20498;-68
2022/08/12 03:03:04;;;;;;;3.47;2.45;;;;;;;;;;5041457;28;20201;-68
2022/08/12 03:05:32;;;;;;;5.30;2.35;;;;;;;;;;5041787;28;20255;-68
2022/08/12 03:07:59;;;;;;;4.07;2.20;;;;;;;;;;5041077;28;20572;-69
2022/08/12 03:10:27;;;;;;;4.00;2.33;;;;;;;;;;5041458;28;20243;-69
2022/08/12 03:12:56;;;;;;;2.20;2.10;;;;;;;;;;5041134;28;20212;-69
2022/08/12 03:15:23;;;;;;;5.03;2.38;;;;;;;;;;5040958;28;20225;-68
2022/08/12 03:17:51;;;;;;;2.28;2.17;;;;;;;;;;5040729;28;20218;-68
2022/08/12 03:20:20;;;;;;;3.05;2.35;;;;;;;;;;5041145;28;20501;-68
2022/08/12 03:22:47;;;;;;;4.15;2.45;;;;;;;;;;5041056;28;20229;-68
2022/08/12 03:25:15;;;;;;;2.25;2.08;;;;;;;;;;5041212;28;20235;-68
2022/08/12 03:27:48;;;;;;;2.20;2.10;;;;;;;;;;5040672;28;20373;-68
2022/08/12 03:30:14;;;;;;;3.97;2.22;;;;;;;;;;5040846;28;20502;-68
2022/08/12 03:32:43;;;;;;;3.10;2.25;;;;;;;;;;5041231;28;20212;-68
2022/08/12 03:35:12;;;;;;;2.63;2.53;;;;;;;;;;5041017;28;20213;-68
2022/08/12 03:37:40;;;;;;;2.50;2.30;;;;;;;;;;5040488;28;20198;-68
2022/08/12 03:40:07;;;;;;;2.17;2.08;;;;;;;;;;5040471;28;20259;-68
2022/08/12 03:42:36;;;;;;;2.90;2.60;;;;;;;;;;5040605;28;20205;-68
2022/08/12 04:01:40;;;;;;;2.85;2.28;;;;;;;;;;5040462;28;20212;-68
2022/08/12 04:04:07;;;;;;;2.17;2.08;;;;;;;;;;5040477;28;20198;-68
2022/08/12 04:06:34;;;;;;;2.83;2.33;;;;;;;;;;5040059;28;20240;-68
2022/08/12 04:09:02;;;;;;;3.22;2.63;;;;;;;;;;5040441;28;20216;-68
2022/08/12 04:14:19;;;;;;;2.60;2.50;;;;;;;;;;5040253;28;20196;-68
2022/08/12 04:16:47;;;;;;;5.70;2.60;;;;;;;;;;5040216;28;20202;-69
2022/08/12 04:19:14;;;;;;;2.92;2.72;;;;;;;;;;5040357;28;20218;-69
2022/08/12 04:21:40;;;;;;;4.70;2.40;;;;;;;;;;5040278;28;20198;-69
2022/08/12 04:24:08;;;;;;;3.60;2.78;;;;;;;;;;5040086;28;20202;-69
2022/08/12 04:26:35;;;;;;;2.60;2.50;;;;;;;;;;5039819;28;20307;-69
2022/08/12 04:29:02;;;;;;;3.05;2.67;;;;;;;;;;5040204;28;20201;-69
2022/08/12 04:31:31;;;;;;;4.40;2.90;;;;;;;;;;5040323;28;20202;-69
2022/08/12 04:33:58;;;;;;;4.63;2.90;;;;;;;;;;5040072;28;20198;-69
2022/08/12 04:36:24;;;;;;;3.03;2.90;;;;;;;;;;5039903;28;20423;-69
2022/08/12 04:38:51;;;;;;;2.88;2.60;;;;;;;;;;5039928;28;20218;-69
2022/08/12 04:41:19;;;;;;;2.50;2.33;;;;;;;;;;5039825;28;20209;-69
2022/08/12 04:43:46;;;;;;;4.25;2.30;;;;;;;;;;5039840;28;20198;-69
2022/08/12 04:46:12;;;;;;;3.05;2.83;;;;;;;;;;5039758;28;20381;-69
2022/08/12 04:48:38;;;;;;;2.55;2.35;;;;;;;;;;5040009;28;20418;-69
2022/08/12 04:51:06;;;;;;;2.80;2.50;;;;;;;;;;5039667;28;20397;-69
2022/08/12 04:53:32;;;;;;;3.03;2.85;;;;;;;;;;5038899;28;20206;-69
2022/08/12 04:55:59;;;;;;;3.08;2.63;;;;;;;;;;5039677;28;20202;-69
2022/08/12 04:58:26;;;;;;;4.05;2.55;;;;;;;;;;5039802;28;20273;-70
2022/08/12 05:00:53;;;;;;;4.13;2.72;;;;;;;;;;5039655;28;20198;-69
2022/08/12 05:03:19;;;;;;;2.78;2.60;;;;;;;;;;5039654;28;20198;-69
2022/08/12 05:05:46;;;;;;;4.95;2.75;;;;;;;;;;5039597;28;20545;-68
2022/08/12 05:08:12;;;;;;;2.95;2.85;;;;;;;;;;5039301;28;20423;-69
2022/08/12 05:10:39;;;;;;;3.70;2.97;;;;;;;;;;5039855;28;20198;-69
2022/08/12 05:13:07;;;;;;;2.90;2.80;;;;;;;;;;5039415;28;20201;-69
2022/08/12 05:15:36;;;;;;;4.72;2.88;;;;;;;;;;5039191;28;20538;-69
2022/08/12 05:18:02;;;;;;;5.05;3.00;;;;;;;;;;5038547;28;20194;-69
2022/08/12 05:20:29;;;;;;;6.13;3.20;;;;;;;;;;5038916;28;20214;-69
2022/08/12 05:23:05;;;;;;;3.67;2.85;;;;;;;;;;5038883;28;20263;-69
2022/08/12 05:25:31;;;;;;;7.50;2.97;;;;;;;;;;5038930;28;20330;-69
2022/08/12 05:27:58;;;;;;;4.35;2.75;;;;;;;;;;5038767;28;20209;-69
2022/08/12 05:30:24;;;;;;;2.80;2.65;;;;;;;;;;5039082;28;20201;-69
2022/08/12 05:32:54;;;;;;;5.45;2.42;;;;;;;;;;5038693;28;20198;-69
2022/08/12 05:35:21;;;;;;;4.75;3.03;;;;;;;;;;5038542;28;20329;-69
2022/08/12 05:37:47;;;;;;;4.40;2.75;;;;;;;;;;5038310;28;20206;-69
2022/08/12 05:40:15;;;;;;;3.75;2.83;;;;;;;;;;5038589;28;20225;-69
2022/08/12 05:42:41;;;;;;;3.65;2.83;;;;;;;;;;5038964;28;20497;-69
2022/08/12 05:45:08;;;;;;;2.90;2.58;;;;;;;;;;5038382;28;20198;-69
2022/08/12 05:47:34;;;;;;;5.05;2.60;;;;;;;;;;5038457;28;20427;-69
2022/08/12 05:50:02;;;;;;;3.10;2.40;;;;;;;;;;5038528;28;20424;-69
2022/08/12 05:52:28;;;;;;;4.80;2.60;;;;;;;;;;5038336;28;20206;-69
2022/08/12 05:54:55;;;;;;;5.45;2.80;;;;;;;;;;5038138;28;20483;-69
2022/08/12 05:57:21;;;;;;;5.68;3.15;;;;;;;;;;5038234;28;20525;-69
2022/08/12 05:59:47;;;;;;;3.15;2.95;;;;;;;;;;5038330;28;20602;-69
2022/08/12 06:02:14;;;;;;;10.50;2.88;;;;;;;;;;5038261;28;20498;-69
2022/08/12 06:04:40;;;;;;;7.70;3.67;;;;;;;;;;5041089;28;20210;-69
2022/08/12 06:07:11;;;;;;;6.28;3.15;;;;;;;;;;5041326;28;20225;-69
2022/08/12 06:09:37;;;;;;;4.47;2.70;;;;;;;;;;5041661;28;20428;-69
2022/08/12 06:12:04;;;;;;;3.80;3.50;;;;;;;;;;5041615;28;20491;-69
2022/08/12 06:14:31;;;;;;;5.95;3.15;;;;;;;;;;5041617;28;20243;-69
2022/08/12 06:16:58;;;;;;;5.00;3.38;;;;;;;;;;5041301;28;20444;-69
2022/08/12 06:19:26;;;;;;;4.30;3.45;;;;;;;;;;5041683;28;20377;-69
2022/08/12 06:21:53;;;;;;;7.32;3.50;;;;;;;;;;5041786;28;20293;-69
2022/08/12 06:24:23;;;;;;;5.20;3.70;;;;;;;;;;5041534;28;20232;-69
2022/08/12 06:26:49;;;;;;;5.43;3.58;;;;;;;;;;5041247;28;20270;-69
2022/08/12 06:29:18;;;;;;;4.63;3.47;;;;;;;;;;5041533;28;20230;-69
2022/08/12 06:31:45;;;;;;;6.30;3.22;;;;;;;;;;5041335;28;20428;-69
2022/08/12 06:34:13;;;;;;;2.80;2.53;;;;;;;;;;5041416;28;20223;-69
2022/08/12 06:36:39;;;;;;;6.57;3.28;;;;;;;;;;5041098;28;20243;-69
2022/08/12 06:39:06;;;;;;;7.53;2.55;;;;;;;;;;5041204;28;20241;-69
2022/08/12 06:44:19;;;;;;;4.13;2.70;;;;;;;;;;5041185;28;20200;-69
2022/08/12 06:46:45;;;;;;;5.00;2.88;;;;;;;;;;5041063;28;20206;-69
2022/08/12 06:49:12;;;;;;;3.20;3.00;;;;;;;;;;5041083;28;20201;-69
2022/08/12 06:51:39;;;;;;;3.80;3.00;;;;;;;;;;5041191;28;20198;-69
2022/08/12 06:54:05;;;;;;;7.47;2.50;;;;;;;;;;5040888;28;20247;-69
2022/08/12 06:56:35;;;;;;;5.85;2.75;;;;;;;;;;5040635;28;20219;-69
2022/08/12 06:59:02;;;;;;;3.50;2.38;;;;;;;;;;5040716;28;20226;-69
2022/08/12 07:01:30;;;;;;;3.28;3.00;;;;;;;;;;5040983;28;20225;-69
2022/08/12 07:03:57;;;;;;;4.00;2.92;;;;;;;;;;5040937;28;20521;-69
2022/08/12 07:06:24;;;;;;;6.45;3.30;;;;;;;;;;5040494;28;20218;-69
2022/08/12 07:08:50;;;;;;;2.40;2.03;;;;;;;;;;5040649;28;20194;-69
2022/08/12 07:11:16;;;;;;;4.35;2.42;;;;;;;;;;5040700;28;20213;-69
2022/08/12 07:13:45;;;;;;;2.08;1.98;;;;;;;;;;5040941;28;20197;-69
2022/08/12 07:16:12;;;;;;;4.78;1.60;;;;;;;;;;5039878;28;20194;-69
2022/08/12 07:18:39;;;;;;;3.42;1.85;;;;;;;;;;5040782;28;20352;-69
2022/08/12 07:21:06;;;;;;;2.13;1.90;;;;;;;;;;5040546;28;20219;-69
2022/08/12 07:23:33;;;;;;;1.73;1.45;;;;;;;;;;5040363;28;20264;-69
2022/08/12 07:26:01;;;;;;;3.15;2.20;;;;;;;;;;5040080;28;20274;-69
2022/08/12 07:28:29;;;;;;;3.88;2.05;;;;;;;;;;5040528;28;20198;-69
2022/08/12 07:30:57;;;;;;;2.35;2.15;;;;;;;;;;5040285;28;20200;-69
2022/08/12 07:33:26;;;;;;;3.90;1.75;;;;;;;;;;5040436;28;20431;-71
2022/08/12 07:35:53;;;;;;;1.65;1.55;;;;;;;;;;5040251;28;20198;-69
2022/08/12 07:38:26;;;;;;;2.05;1.95;;;;;;;;;;5039950;28;20501;-68
2022/08/12 07:40:54;;;;;;;2.15;1.65;;;;;;;;;;5040294;28;20240;-68
2022/08/12 07:43:20;;;;;;;1.83;1.73;;;;;;;;;;5040365;28;20201;-68
2022/08/12 07:45:47;;;;;;;3.17;2.08;;;;;;;;;;5040236;28;20197;-68
2022/08/12 07:48:14;;;;;;;4.75;2.15;;;;;;;;;;5039931;28;20202;-68
2022/08/12 07:50:40;;;;;;;5.60;1.98;;;;;;;;;;5040010;28;20443;-68
2022/08/12 07:53:07;;;;;;;4.15;2.03;;;;;;;;;;5039995;28;20202;-68
2022/08/12 07:55:34;;;;;;;2.42;1.70;;;;;;;;;;5039240;28;20200;-68
2022/08/12 07:58:01;;;;;;;8.30;2.63;;;;;;;;;;5039967;28;20562;-68
2022/08/12 08:00:29;;;;;;;2.53;2.40;;;;;;;;;;5040395;28;20558;-68
2022/08/12 08:02:55;;;;;;;2.33;2.00;;;;;;;;;;5040308;28;20206;-68
2022/08/12 08:05:24;;;;;;;18.00;6.07;;;;;;;;;;5040775;28;20221;-68
2022/08/12 08:07:52;;;;;;;4.15;1.90;;;;;;;;;;5039980;28;20553;-68
2022/08/12 08:10:19;;;;;;;4.32;1.67;;;;;;;;;;5040636;28;20205;-68
2022/08/12 08:12:54;;;;;;;2.60;1.67;;;;;;;;;;5040305;28;20423;-68
2022/08/12 08:15:21;;;;;;;1.80;1.70;;;;;;;;;;5040277;28;20193;-69
2022/08/12 08:17:58;;;;;;;9.75;2.60;;;;;;;;;;5042105;28;20213;-69
2022/08/12 08:20:28;;;;;;;4.30;3.28;;;;;;;;;;5040716;28;20240;-68
2022/08/12 08:22:55;;;;;;;2.30;1.90;;;;;;;;;;5040571;28;20205;-68
2022/08/12 08:25:22;;;;;;;4.68;2.03;;;;;;;;;;5040104;28;20242;-68
2022/08/12 08:27:48;;;;;;;2.08;1.73;;;;;;;;;;5038647;28;20299;-68
2022/08/12 08:30:16;;;;;;;1.98;1.60;;;;;;;;;;5039861;28;20193;-68
2022/08/12 08:32:42;;;;;;;4.35;2.13;;;;;;;;;;5040192;28;20198;-68
2022/08/12 08:35:13;;;;;;;2.90;1.60;;;;;;;;;;5040221;28;20258;-68
2022/08/12 08:37:42;;;;;;;5.03;1.50;;;;;;;;;;5039974;28;20495;-68
2022/08/12 08:42:53;;;;;;;6.50;1.80;;;;;;;;;;5039660;28;20203;-68
2022/08/12 08:45:19;;;;;;;3.22;1.50;;;;;;;;;;5039784;28;20197;-68
2022/08/12 08:47:46;;;;;;;8.07;1.95;;;;;;;;;;5039722;28;20511;-68
2022/08/12 08:50:13;;;;;;;2.67;1.58;;;;;;;;;;5039797;28;20448;-68
2022/08/12 08:52:41;;;;;;;1.30;1.30;;;;;;;;;;5039467;28;20234;-68
2022/08/12 08:55:09;;;;;;;5.38;2.17;;;;;;;;;;5039404;28;20206;-68
2022/08/12 08:57:35;;;;;;;3.28;2.75;;;;;;;;;;5039252;28;20203;-68
2022/08/12 09:00:01;;;;;;;2.45;1.70;;;;;;;;;;5039475;28;20275;-68
2022/08/12 09:02:28;;;;;;;3.42;1.73;;;;;;;;;;5039467;28;20204;-68
2022/08/12 09:04:54;;;;;;;1.73;1.63;;;;;;;;;;5039662;28;20217;-68
2022/08/12 09:07:20;;;;;;;1.55;1.40;;;;;;;;;;5039801;28;20197;-68
2022/08/12 09:09:49;;;;;;;2.75;1.40;;;;;;;;;;5039369;28;20517;-68
2022/08/12 09:14:59;;;;;;;2.70;1.95;;;;;;;;;;5039336;28;20208;-69
2022/08/12 09:17:25;;;;;;;2.85;1.98;;;;;;;;;;5039439;28;20234;-68
2022/08/12 09:19:52;;;;;;;1.98;1.42;;;;;;;;;;5039250;28;20258;-68
2022/08/12 09:22:19;;;;;;;3.28;1.42;;;;;;;;;;5039415;28;20205;-68
2022/08/12 09:24:47;;;;;;;5.60;1.65;;;;;;;;;;5039614;28;20242;-69
2022/08/12 09:27:16;;;;;;;2.97;1.70;;;;;;;;;;5039253;28;20281;-68
2022/08/12 09:29:42;;;;;;;2.17;1.73;;;;;;;;;;5039265;28;20424;-69
2022/08/12 09:32:08;;;;;;;2.50;2.30;;;;;;;;;;5039123;28;20240;-69
2022/08/12 09:34:35;;;;;;;1.92;1.85;;;;;;;;;;5038961;28;20194;-69
2022/08/12 09:37:02;;;;;;;8.30;1.83;;;;;;;;;;5038774;28;20640;-68
2022/08/12 09:39:29;;;;;;;3.30;2.00;;;;;;;;;;5041825;28;20224;-68
2022/08/12 09:47:21;;;;;;;2.53;2.00;;;;;;;;;;5042093;28;20239;-69
2022/08/12 09:49:48;;;;;;;3.70;1.98;;;;;;;;;;5042683;28;20501;-69
2022/08/12 09:52:14;;;;;;;3.67;2.35;;;;;;;;;;5042664;28;20387;-69
2022/08/12 09:54:41;;;;;;;1.70;1.70;;;;;;;;;;5042308;28;20205;-69
2022/08/12 09:57:08;;;;;;;2.00;1.65;;;;;;;;;;5042081;28;20197;-69
2022/08/12 09:59:34;;;;;;;1.80;1.70;;;;;;;;;;5042172;28;20216;-69
2022/08/12 10:02:02;;;;;;;8.25;1.30;;;;;;;;;;5042101;28;20560;-69
2022/08/12 10:04:29;;;;;;;4.13;1.90;;;;;;;;;;5042427;28;20205;-69
2022/08/12 10:06:55;;;;;;;3.03;1.45;;;;;;;;;;5042306;28;20308;-69
2022/08/12 10:09:21;;;;;;;1.27;1.27;;;;;;;;;;5042316;28;20204;-69
2022/08/12 10:14:31;;;;;;;2.28;1.20;;;;;;;;;;5041997;28;20196;-69
2022/08/12 10:16:58;;;;;;;1.83;1.40;;;;;;;;;;5041923;28;20210;-69
2022/08/12 10:19:25;;;;;;;2.92;1.63;;;;;;;;;;5042049;28;20217;-69
2022/08/12 10:21:53;;;;;;;4.07;1.10;;;;;;;;;;5042089;28;20381;-69
2022/08/12 10:24:22;;;;;;;4.15;1.63;;;;;;;;;;5041869;28;20197;-69
2022/08/12 10:29:43;;;;;;;1.15;1.15;;;;;;;;;;5041902;28;20530;-69
2022/08/12 10:32:11;;;;;;;1.80;1.70;;;;;;;;;;5042139;28;20429;-69
2022/08/12 10:34:39;;;;;;;1.83;1.67;;;;;;;;;;5041806;28;20197;-69
2022/08/12 10:37:06;;;;;;;2.35;1.48;;;;;;;;;;5041439;28;20212;-69
2022/08/12 10:39:35;;;;;;;1.67;1.30;;;;;;;;;;5041432;28;20235;-69
2022/08/12 10:44:46;;;;;;;2.05;1.25;;;;;;;;;;5041653;28;20504;-69
2022/08/12 10:47:15;;;;;;;1.20;1.10;;;;;;;;;;5041422;28;20242;-69
2022/08/12 10:49:43;;;;;;;1.08;1.00;;;;;;;;;;5040287;28;20204;-69
2022/08/12 10:52:11;;;;;;;2.30;1.10;;;;;;;;;;5041490;28;20197;-69
2022/08/12 10:54:37;;;;;;;1.27;1.27;;;;;;;;;;5041457;28;20276;-69
2022/08/12 10:57:03;;;;;;;1.40;1.20;;;;;;;;;;5041351;28;20476;-69
2022/08/12 10:59:30;;;;;;;1.85;1.00;;;;;;;;;;5041470;28;20201;-69
2022/08/12 11:01:57;;;;;;;1.30;1.30;;;;;;;;;;5041329;28;20221;-69
2022/08/12 11:04:24;;;;;;;1.45;1.33;;;;;;;;;;5041338;28;20238;-69
2022/08/12 11:06:52;;;;;;;1.73;1.10;;;;;;;;;;5041114;28;20455;-69
2022/08/12 11:09:19;;;;;;;1.20;1.20;;;;;;;;;;5041550;28;20426;-69
2022/08/12 11:11:46;;;;;;;1.33;1.23;;;;;;;;;;5041328;28;20194;-69
2022/08/12 11:14:16;;;;;;;1.13;1.13;;;;;;;;;;5041061;28;20197;-69
2022/08/12 11:16:42;;;;;;;2.00;1.38;;;;;;;;;;5040796;28;20198;-69
2022/08/12 11:19:08;;;;;;;2.17;1.30;;;;;;;;;;5041015;28;20197;-69
2022/08/12 11:21:34;;;;;;;4.90;1.17;;;;;;;;;;5040974;28;20243;-69
2022/08/12 11:24:02;;;;;;;1.02;1.02;;;;;;;;;;5041270;28;20201;-69
2022/08/12 11:26:28;;;;;;;1.02;1.02;;;;;;;;;;5040810;28;20198;-69
2022/08/12 11:28:55;;;;;;;7.82;1.02;;;;;;;;;;5041003;28;20235;-69
2022/08/12 11:31:21;;;;;;;2.22;1.17;;;;;;;;;;5040891;28;20197;-69
2022/08/12 11:33:48;;;;;;;1.60;0.98;;;;;;;;;;5040756;28;20209;-69
2022/08/12 11:36:14;;;;;;;4.30;1.25;;;;;;;;;;5040561;28;20197;-69
2022/08/12 11:38:40;;;;;;;2.45;0.98;;;;;;;;;;5040800;28;20242;-69
2022/08/12 11:41:08;;;;;;;2.70;1.10;;;;;;;;;;5040779;28;20453;-69
2022/08/12 11:43:34;;;;;;;1.75;1.00;;;;;;;;;;5040708;28;20197;-69
2022/08/12 11:46:01;;;;;;;4.40;1.27;;;;;;;;;;5040626;28;20201;-70
2022/08/12 11:48:27;;;;;;;2.33;0.82;;;;;;;;;;5040933;28;20250;-69
2022/08/12 11:50:53;;;;;;;1.30;1.17;;;;;;;;;;5040625;28;20215;-69
2022/08/12 11:53:19;;;;;;;2.05;1.10;;;;;;;;;;5040681;28;20209;-69
2022/08/12 11:55:46;;;;;;;3.72;1.58;;;;;;;;;;5040646;28;20234;-69
2022/08/12 11:58:13;;;;;;;4.68;1.40;;;;;;;;;;5040388;28;20243;-69
2022/08/12 12:00:39;;;;;;;4.80;1.02;;;;;;;;;;5039812;28;20262;-69
2022/08/12 12:03:06;;;;;;;2.70;1.30;;;;;;;;;;5040267;28;20197;-69
2022/08/12 12:05:32;;;;;;;1.38;1.33;;;;;;;;;;5040587;28;20221;-69
2022/08/12 12:07:58;;;;;;;2.78;1.08;;;;;;;;;;5040244;28;20197;-69
2022/08/12 12:10:24;;;;;;;2.28;1.10;;;;;;;;;;5040481;28;20239;-69
2022/08/12 12:12:51;;;;;;;5.05;1.25;;;;;;;;;;5040249;28;20235;-69
2022/08/12 12:15:18;;;;;;;1.90;1.10;;;;;;;;;;5040032;28;20205;-69
2022/08/12 12:17:45;;;;;;;4.28;1.23;;;;;;;;;;5040127;28;20201;-69
2022/08/12 12:20:12;;;;;;;2.05;1.20;;;;;;;;;;5040239;28;20258;-69
2022/08/12 12:22:39;;;;;;;2.00;1.10;;;;;;;;;;5040141;28;20198;-69
2022/08/12 12:25:06;;;;;;;1.98;1.23;;;;;;;;;;5040105;28;20450;-69
2022/08/12 12:27:43;;;;;;;4.30;1.30;;;;;;;;;;5039891;28;20206;-69
2022/08/12 12:30:10;;;;;;;1.95;1.30;;;;;;;;;;5040267;28;20201;-69
2022/08/12 12:32:37;;;;;;;1.30;1.17;;;;;;;;;;5040145;28;20551;-69
2022/08/12 12:35:04;;;;;;;1.27;1.17;;;;;;;;;;5040172;28;20205;-69
2022/08/12 12:37:30;;;;;;;6.85;1.05;;;;;;;;;;5039664;28;20197;-69
2022/08/12 12:39:57;;;;;;;2.95;1.30;;;;;;;;;;5040020;28;20197;-69
2022/08/12 12:42:23;;;;;;;1.45;1.35;;;;;;;;;;5039725;28;20221;-69
2022/08/12 12:44:49;;;;;;;1.30;1.20;;;;;;;;;;5039995;28;20204;-69
2022/08/12 12:47:15;;;;;;;0.90;0.90;;;;;;;;;;5039543;28;20250;-69
2022/08/12 12:49:43;;;;;;;1.20;1.20;;;;;;;;;;5039771;28;20204;-69
2022/08/12 12:52:09;;;;;;;1.33;1.15;;;;;;;;;;5039779;28;20205;-69
2022/08/12 12:54:36;;;;;;;1.20;1.20;;;;;;;;;;5039941;28;20249;-69
2022/08/12 12:57:02;;;;;;;2.85;1.00;;;;;;;;;;5039335;28;20197;-69
2022/08/12 12:59:30;;;;;;;1.92;1.10;;;;;;;;;;5039785;28;20201;-69
2022/08/12 13:02:05;;;;;;;4.82;1.30;;;;;;;;;;5039449;28;20235;-69
2022/08/12 13:04:33;;;;;;;1.20;1.20;;;;;;;;;;5039790;28;20268;-69
2022/08/12 13:07:00;;;;;;;4.20;1.38;;;;;;;;;;5039202;28;20197;-69
2022/08/12 13:09:27;;;;;;;1.92;1.10;;;;;;;;;;5039309;28;20198;-69
2022/08/12 13:11:54;;;;;;;2.05;1.10;;;;;;;;;;5039580;28;20197;-69
2022/08/12 13:14:22;;;;;;;3.17;1.30;;;;;;;;;;5038530;28;20192;-69
2022/08/12 13:16:48;;;;;;;1.27;1.17;;;;;;;;;;5039153;28;20204;-69
2022/08/12 13:19:15;;;;;;;2.67;1.00;;;;;;;;;;5039383;28;20242;-69
2022/08/12 13:22:15;;;;;;;3.83;1.27;;;;;;;;;;5039295;28;20258;-69
2022/08/12 13:24:28;;;;;;;4.97;1.00;;;;;;;;;;5039031;28;20193;-69
2022/08/12 13:26:55;;;;;;;3.15;1.00;;;;;;;;;;5039063;28;20234;-69
2022/08/12 13:29:21;;;;;;;1.20;1.20;;;;;;;;;;5039245;28;20242;-69
2022/08/12 13:31:54;;;;;;;2.63;1.00;;;;;;;;;;5039039;28;20231;-69
2022/08/12 13:34:22;;;;;;;1.10;0.93;;;;;;;;;;5039075;28;20521;-69
2022/08/12 13:36:48;;;;;;;3.97;1.05;;;;;;;;;;5038770;28;20268;-69
2022/08/12 13:39:15;;;;;;;2.40;1.05;;;;;;;;;;5039280;28;20528;-69
2022/08/12 13:41:43;;;;;;;2.85;1.00;;;;;;;;;;5039078;28;20221;-69
2022/08/12 13:44:10;;;;;;;1.25;1.15;;;;;;;;;;5039051;28;20203;-69
2022/08/12 13:46:37;;;;;;;1.85;1.20;;;;;;;;;;5038801;28;20204;-69
2022/08/12 13:49:06;;;;;;;1.85;0.90;;;;;;;;;;5038912;28;20198;-69
2022/08/12 13:51:34;;;;;;;6.63;1.02;;;;;;;;;;5038837;28;20198;-69
2022/08/12 13:54:03;;;;;;;3.50;1.00;;;;;;;;;;5038614;28;20205;-69
2022/08/12 13:56:32;;;;;;;1.55;0.98;;;;;;;;;;5038751;28;20225;-69
2022/08/12 13:59:00;;;;;;;1.27;0.90;;;;;;;;;;5038844;28;20309;-69
2022/08/12 14:01:27;;;;;;;1.75;1.00;;;;;;;;;;5038572;28;20443;-69
2022/08/12 14:03:54;;;;;;;2.08;1.05;;;;;;;;;;5038751;28;20519;-69
2022/08/12 14:06:20;;;;;;;1.15;1.10;;;;;;;;;;5038682;28;20218;-69
2022/08/12 14:08:48;;;;;;;1.63;1.15;;;;;;;;;;5038953;28;20427;-69
2022/08/12 14:11:14;;;;;;;0.90;0.90;;;;;;;;;;5038693;28;20194;-69
2022/08/12 14:13:41;;;;;;;1.20;1.10;;;;;;;;;;5038501;28;20204;-69
2022/08/12 14:16:12;;;;;;;1.23;1.10;;;;;;;;;;5038324;28;20265;-69
2022/08/12 14:18:40;;;;;;;1.45;0.90;;;;;;;;;;5038690;28;20198;-69
2022/08/12 14:21:08;;;;;;;1.45;1.08;;;;;;;;;;5038587;28;20257;-69
2022/08/12 14:23:41;;;;;;;1.85;1.00;;;;;;;;;;5038638;28;20205;-69
2022/08/12 14:26:07;;;;;;;1.80;1.10;;;;;;;;;;5041751;28;20505;-69
2022/08/12 14:28:35;;;;;;;4.13;0.90;;;;;;;;;;5041817;28;20198;-69
2022/08/12 14:31:02;;;;;;;0.90;0.90;;;;;;;;;;5042008;28;20239;-69
2022/08/12 14:33:32;;;;;;;1.00;1.00;;;;;;;;;;5042056;28;20205;-69
2022/08/12 14:35:59;;;;;;;2.95;0.80;;;;;;;;;;5041620;28;20625;-69
2022/08/12 14:38:26;;;;;;;1.15;0.80;;;;;;;;;;5041752;28;20197;-69
2022/08/12 14:40:55;;;;;;;2.80;1.00;;;;;;;;;;5041631;28;20306;-69
2022/08/12 14:43:21;;;;;;;1.10;0.98;;;;;;;;;;5041480;28;20564;-69
2022/08/12 14:45:48;;;;;;;3.42;0.98;;;;;;;;;;5041722;28;20505;-69
2022/08/12 14:48:17;;;;;;;4.28;1.00;;;;;;;;;;5041454;28;20493;-69
2022/08/12 14:50:45;;;;;;;1.38;0.80;;;;;;;;;;5041534;28;20201;-69
2022/08/12 14:53:13;;;;;;;2.88;0.70;;;;;;;;;;5041400;28;20434;-69
2022/08/12 14:55:40;;;;;;;5.65;0.73;;;;;;;;;;5041510;28;20197;-69
2022/08/12 14:58:07;;;;;;;1.33;0.80;;;;;;;;;;5041381;28;20212;-69
2022/08/12 15:03:19;;;;;;;2.15;0.70;;;;;;;;;;5041294;28;20476;-69
2022/08/12 15:05:46;;;;;;;3.45;0.90;;;;;;;;;;5041133;28;20473;-69
2022/08/12 15:08:13;;;;;;;2.72;0.90;;;;;;;;;;5040908;28;20198;-69
2022/08/12 15:10:40;;;;;;;0.75;0.75;;;;;;;;;;5041443;28;20205;-69
2022/08/12 15:13:08;;;;;;;0.88;0.77;;;;;;;;;;5041211;28;20419;-69
2022/08/12 15:15:37;;;;;;;2.28;0.90;;;;;;;;;;5041167;28;20234;-69
2022/08/12 15:18:03;;;;;;;3.40;0.90;;;;;;;;;;5040926;28;20548;-69
2022/08/12 15:20:30;;;;;;;4.13;0.75;;;;;;;;;;5041142;28;20234;-69
2022/08/12 15:22:58;;;;;;;2.03;0.82;;;;;;;;;;5040785;28;20225;-69
2022/08/12 15:25:25;;;;;;;1.70;1.00;;;;;;;;;;5040928;28;20272;-69
2022/08/12 15:27:52;;;;;;;4.78;0.82;;;;;;;;;;5040582;28;20201;-69
2022/08/12 15:30:18;;;;;;;3.45;1.00;;;;;;;;;;5040106;28;20552;-69
2022/08/12 15:32:45;;;;;;;2.05;0.80;;;;;;;;;;5040134;28;20272;-69
2022/08/12 15:35:13;;;;;;;1.67;0.80;;;;;;;;;;5040179;28;20550;-69
2022/08/12 15:37:39;;;;;;;0.70;0.70;;;;;;;;;;5039720;28;20205;-69
2022/08/12 15:40:09;;;;;;;1.60;0.80;;;;;;;;;;5040328;28;20198;-69
2022/08/12 15:42:35;;;;;;;4.28;0.90;;;;;;;;;;5040075;28;20221;-69
2022/08/12 15:45:02;;;;;;;0.98;0.82;;;;;;;;;;5040197;28;20205;-69
2022/08/12 15:47:28;;;;;;;2.70;1.20;;;;;;;;;;5039790;28;20497;-69
2022/08/12 15:49:54;;;;;;;2.05;0.80;;;;;;;;;;5039857;28;20564;-69
2022/08/12 15:52:23;;;;;;;2.00;0.80;;;;;;;;;;5039990;28;20194;-69
2022/08/12 15:54:50;;;;;;;1.08;0.80;;;;;;;;;;5039983;28;20296;-69
2022/08/12 15:57:18;;;;;;;2.50;0.98;;;;;;;;;;5039567;28;20198;-69
2022/08/12 15:59:45;;;;;;;3.45;0.98;;;;;;;;;;5039729;28;20236;-69
2022/08/12 16:02:13;;;;;;;4.60;0.95;;;;;;;;;;5039595;28;20410;-69
2022/08/12 16:04:39;;;;;;;1.60;0.57;;;;;;;;;;5039535;28;20228;-69
2022/08/12 16:07:05;;;;;;;2.15;0.63;;;;;;;;;;5039856;28;20558;-69
2022/08/12 16:09:32;;;;;;;3.30;0.80;;;;;;;;;;5040633;28;20197;-69
2022/08/12 16:12:02;;;;;;;1.85;0.82;;;;;;;;;;5040351;28;20408;-69
2022/08/12 16:14:31;;;;;;;1.35;0.93;;;;;;;;;;5040187;28;20197;-69
2022/08/12 16:16:58;;;;;;;0.85;0.80;;;;;;;;;;5039750;28;20205;-69
2022/08/12 16:19:24;;;;;;;2.47;0.60;;;;;;;;;;5040302;28;20242;-69
2022/08/12 16:21:50;;;;;;;0.95;0.80;;;;;;;;;;5040106;28;20225;-69
2022/08/12 16:24:18;;;;;;;1.65;0.80;;;;;;;;;;5040130;28;20201;-69
2022/08/12 16:26:45;;;;;;;1.02;0.70;;;;;;;;;;5040064;28;20209;-69
2022/08/12 16:29:12;;;;;;;3.83;0.60;;;;;;;;;;5039888;28;20197;-69